Washburn, WI (54891)

8:00 AM CDT on July 24, 2016 (GMT -0500)
Superior View | | Change Station

Elev 735 ft 46.68 °N, 90.90 °W | Updated 8 minutes ago

Partly Cloudy
Partly Cloudy
70.0 °F
Feels Like 70.0 °F
N
1.7
Wind Variable Wind from South

Today
High -- | Low -- °F
--% Chance of Precip.
Yesterday
High -- | Low -- °F
Precip. -- in
Pressure 29.76 in
Visibility 10.0 miles
Clouds Few 700 ft
Dew Point 68 °F
Humidity 93%
Rainfall 0.02 in
Snow Depth Not available.
5:35 AM 8:44 PM
Waning Gibbous, 76% visible
METAR KASX 241253Z AUTO 22006KT 10SM FEW007 22/19 A2977 RMK AO2 SLP077 T02170194
Pressure 29.76 in
Visibility 10.0 miles
Clouds Few 700 ft
Dew Point 68 °F
Humidity 93%
Rainfall 0.02 in
Snow Depth Not available.
5:35 AM 8:44 PM
Waning Gibbous, 76% visible
METAR KASX 241253Z AUTO 22006KT 10SM FEW007 22/19 A2977 RMK AO2 SLP077 T02170194

10-Day Weather Forecast

Almanac

Astronomy

Jul. 24, 2016 Rise Set
Actual Time
Civil Twilight
Nautical Twilight
Astronomical Twilight
Moon
Length of Visible Light
Length of Day
Tomorrow will be .
, % of the Moon is Illuminated

Today's Extremes

State Highs State Lows

Community

WunderPhotos

Upload Photos

1,927,054 photos uploaded!

WunderBlog® & News

Nearby

Air Quality

  Air Quality AQ Index Pollutant
Not available.

Snow Depth

Station Depth Elevation

Earthquake Activity

City Distance Mag. Time & Date
Minimum magnitude displayed is 2.5.

Coastal Water Temperatures

Place Temperature

Stations

Nearby Weather Stations

Station Location Temp. Windchill Dew Point Humidity Wind Precip. Elev Updated Type
                   

Watches & Warnings

There are currently no watches in effect.